Thorco Attraction — V2BS1 — position and weather

sailwx.info

Track history (hours):
 
Tides and Currents Weather Stations Pressure Air Temp Water Temp Dewpoint Dewpoint Depression Visibility Wind Speed Wind Dir Waves Ship Positions

Thorco Attraction

Last reported at 2016-May-02 22:14 UTC. Time now 2016-May-03 16:16 UTC.
Position N 35°58' W 005°36'.

Length 132 m; draft 5.8 m.

Type: Ship. MMSI: 304908000.

Date/timePositionNaut miles runAvg speedWind from/ knotsBaromVisibWave heightAir tempDewpointWater temp
2016-May-02 22:14N 35°58' W 005°36'1013.9
2016-May-02 21:34N 36°00' W 005°25'  
2016-Apr-30 14:28N 37°37' E 010°28'1314.6
2016-Apr-30 13:33N 37°34' E 010°44'13014.4
2016-Apr-30 04:33N 36°55' E 013°19'1414.3
2016-Apr-30 03:34N 36°51' E 013°37'1414.5
2016-Apr-30 02:34N 36°47' E 013°54'1414.2
2016-Apr-30 01:34N 36°43' E 014°11'1414.0
2016-Apr-30 00:34N 36°39' E 014°27'1413.8
2016-Apr-29 23:33N 36°35' E 014°44'1414.0
2016-Apr-29 22:31N 36°34' E 015°02'52110.6
2016-Apr-27 21:08N 45°08' E 013°05'814.4
2016-Apr-27 20:33N 45°16' E 013°02'  
Track history (hours):
 
Tides and Currents Weather Stations Pressure Air Temp Water Temp Dewpoint Dewpoint Depression Visibility Wind Speed Wind Dir Waves Ship Positions

Thorco Attraction

Last reported at 2016-May-02 22:14 UTC. Time now 2016-May-03 16:16 UTC.
Position N 35°58' W 005°36'.

Length 132 m; draft 5.8 m.

Type: Ship. MMSI: 304908000.

Date/timePositionNaut miles runAvg speedWind from/ knotsBaromVisibWave heightAir tempDewpointWater temp
2016-May-02 22:14N 35°58' W 005°36'1013.9
2016-May-02 21:34N 36°00' W 005°25'  
2016-Apr-30 14:28N 37°37' E 010°28'1314.6
2016-Apr-30 13:33N 37°34' E 010°44'13014.4
2016-Apr-30 04:33N 36°55' E 013°19'1414.3
2016-Apr-30 03:34N 36°51' E 013°37'1414.5
2016-Apr-30 02:34N 36°47' E 013°54'1414.2
2016-Apr-30 01:34N 36°43' E 014°11'1414.0
2016-Apr-30 00:34N 36°39' E 014°27'1413.8
2016-Apr-29 23:33N 36°35' E 014°44'1414.0
2016-Apr-29 22:31N 36°34' E 015°02'52110.6
2016-Apr-27 21:08N 45°08' E 013°05'814.4
2016-Apr-27 20:33N 45°16' E 013°02'  

Dump ship's entire track history